Time;durP1;ratioP1;P1;durP2;ratioP2;P2;SDS_P1;SDS_P2;PMS_P1;PMS_P2;Temp;Humidity;BMP_temperature;BMP_pressure;BME280_temperature;BME280_humidity;BME280_pressure;Samples;Min_cycle;Max_cycle;Signal;HPM_P1;HPM_P2
2023/04/27 00:00:23;;;;;;;3.83;3.40;;;10.10;99.90;;;;;;5037752;28;20435;-82
2023/04/27 00:02:49;;;;;;;3.50;3.20;;;10.10;99.90;;;;;;5037881;28;20390;-82
2023/04/27 00:05:15;;;;;;;3.60;3.20;;;10.10;99.90;;;;;;5053461;28;20400;-82
2023/04/27 00:07:40;;;;;;;4.10;3.50;;;10.20;99.90;;;;;;5071081;28;20473;-81
2023/04/27 00:10:07;;;;;;;4.03;3.40;;;10.10;99.90;;;;;;5060918;28;20389;-82
2023/04/27 00:12:32;;;;;;;4.30;3.33;;;10.20;99.90;;;;;;5058759;28;20388;-82
2023/04/27 00:14:58;;;;;;;4.85;3.60;;;10.20;99.90;;;;;;5040317;28;20382;-82
2023/04/27 00:17:23;;;;;;;4.75;3.67;;;10.20;99.90;;;;;;5058970;28;20393;-82
2023/04/27 00:19:49;;;;;;;3.70;3.40;;;10.10;99.90;;;;;;5057523;28;20446;-82
2023/04/27 00:22:14;;;;;;;4.43;3.30;;;10.00;99.90;;;;;;5057779;28;20384;-82
2023/04/27 00:24:40;;;;;;;5.57;3.63;;;9.90;99.90;;;;;;5040677;28;20385;-82
2023/04/27 00:27:06;;;;;;;4.88;3.70;;;10.00;99.90;;;;;;5057905;28;20385;-82
2023/04/27 00:29:32;;;;;;;3.88;3.17;;;10.00;99.90;;;;;;5040092;28;20415;-82
2023/04/27 00:31:57;;;;;;;3.70;3.40;;;10.00;99.90;;;;;;5039936;28;20453;-82
2023/04/27 00:34:23;;;;;;;4.22;3.47;;;10.00;99.90;;;;;;5039827;28;20386;-82
2023/04/27 00:36:48;;;;;;;3.60;3.30;;;10.10;99.90;;;;;;5056118;28;20385;-82
2023/04/27 00:39:15;;;;;;;4.13;3.00;;;10.00;99.90;;;;;;5055784;28;20386;-82
2023/04/27 00:41:41;;;;;;;3.97;3.40;;;10.00;99.90;;;;;;5058512;28;20389;-82
2023/04/27 00:44:06;;;;;;;4.55;3.60;;;10.00;99.90;;;;;;5059525;28;20393;-82
2023/04/27 00:46:33;;;;;;;3.80;3.50;;;10.10;99.90;;;;;;5042013;28;20751;-82
2023/04/27 00:49:00;;;;;;;4.07;3.60;;;10.00;99.90;;;;;;5042187;28;20451;-82
2023/04/27 00:51:28;;;;;;;4.10;3.58;;;10.00;99.90;;;;;;5068193;28;20405;-82
2023/04/27 00:53:56;;;;;;;4.50;3.70;;;10.00;99.90;;;;;;5045711;28;20535;-82
2023/04/27 00:56:22;;;;;;;5.07;3.40;;;9.90;99.90;;;;;;5044463;28;20385;-82
2023/04/27 00:58:48;;;;;;;4.50;3.50;;;9.90;99.90;;;;;;5075750;28;20411;-82
2023/04/27 01:01:13;;;;;;;4.40;3.50;;;10.00;99.90;;;;;;5064235;28;20411;-82
2023/04/27 01:03:39;;;;;;;4.00;3.60;;;9.90;99.90;;;;;;5062704;28;20468;-83
2023/04/27 01:06:05;;;;;;;3.60;3.30;;;10.00;99.90;;;;;;5062876;28;20890;-83
2023/04/27 01:08:30;;;;;;;4.20;3.40;;;9.90;99.90;;;;;;5082447;28;20411;-82
2023/04/27 01:10:56;;;;;;;5.45;3.90;;;10.00;99.90;;;;;;5081530;28;20388;-82
2023/04/27 01:13:22;;;;;;;3.78;3.47;;;9.90;99.90;;;;;;5062090;28;21156;-82
2023/04/27 01:15:47;;;;;;;4.20;3.80;;;10.00;99.90;;;;;;5061246;28;20384;-82
2023/04/27 01:18:13;;;;;;;4.20;3.90;;;9.90;99.90;;;;;;5079990;28;20409;-82
2023/04/27 01:20:39;;;;;;;3.83;3.10;;;10.00;99.90;;;;;;5062076;28;20441;-82
2023/04/27 01:23:05;;;;;;;4.20;3.50;;;9.90;99.90;;;;;;5079682;28;20393;-82
2023/04/27 01:25:30;;;;;;;4.93;3.97;;;9.90;99.90;;;;;;5060686;28;20560;-82
2023/04/27 01:27:56;;;;;;;3.90;3.50;;;9.90;99.90;;;;;;5060514;28;20411;-82
2023/04/27 01:30:21;;;;;;;4.47;3.60;;;9.90;99.90;;;;;;5080564;28;20394;-82
2023/04/27 01:32:48;;;;;;;4.20;3.80;;;9.90;99.90;;;;;;5062821;28;20387;-82
2023/04/27 01:35:14;;;;;;;7.07;4.10;;;9.90;99.90;;;;;;5080469;28;20414;-82
2023/04/27 01:37:40;;;;;;;5.20;4.00;;;9.90;99.90;;;;;;5079975;28;20388;-82
2023/04/27 01:40:06;;;;;;;5.10;3.60;;;9.80;99.90;;;;;;5080423;28;20458;-82
2023/04/27 01:42:31;;;;;;;4.43;3.50;;;9.90;99.90;;;;;;5079503;28;20396;-82
2023/04/27 01:44:59;;;;;;;3.60;3.30;;;9.90;99.90;;;;;;5080043;28;20490;-82
2023/04/27 01:47:25;;;;;;;5.13;3.83;;;9.80;99.90;;;;;;5061682;28;20774;-82
2023/04/27 01:49:51;;;;;;;3.67;3.38;;;9.90;99.90;;;;;;5061237;28;20383;-83
2023/04/27 01:52:16;;;;;;;3.70;3.35;;;9.90;99.90;;;;;;5062875;28;20395;-82
2023/04/27 01:54:42;;;;;;;3.70;3.40;;;10.00;99.90;;;;;;5090709;28;20455;-82
2023/04/27 01:57:07;;;;;;;3.67;3.17;;;9.90;99.90;;;;;;5082476;28;20388;-83
2023/04/27 01:59:33;;;;;;;4.10;3.70;;;9.90;99.90;;;;;;5061853;28;20385;-82
2023/04/27 02:01:59;;;;;;;3.60;3.30;;;9.90;99.90;;;;;;5065515;28;20393;-82
2023/04/27 02:04:24;;;;;;;3.97;3.55;;;9.90;99.90;;;;;;5044264;28;20374;-82
2023/04/27 02:06:50;;;;;;;3.95;3.58;;;9.80;99.90;;;;;;5042905;28;20397;-83
2023/04/27 02:09:15;;;;;;;3.73;3.43;;;9.80;99.90;;;;;;5060327;28;20891;-82
2023/04/27 02:11:41;;;;;;;4.47;3.50;;;9.80;99.90;;;;;;5043736;28;20392;-82
2023/04/27 02:14:06;;;;;;;4.70;4.10;;;9.80;99.90;;;;;;5043113;28;20388;-81
2023/04/27 02:16:32;;;;;;;3.90;3.60;;;9.80;99.90;;;;;;5042630;28;20417;-82
2023/04/27 02:18:58;;;;;;;4.60;3.70;;;9.90;99.90;;;;;;5041105;28;20419;-82
2023/04/27 02:21:23;;;;;;;4.40;3.60;;;9.90;99.90;;;;;;5042351;28;20389;-82
2023/04/27 02:23:49;;;;;;;4.10;3.70;;;9.90;99.90;;;;;;5042923;28;20751;-83
2023/04/27 02:26:19;;;;;;;3.60;3.30;;;9.90;99.90;;;;;;5041853;28;20435;-82
2023/04/27 02:28:46;;;;;;;4.80;3.58;;;10.00;99.90;;;;;;5059049;28;20440;-82
2023/04/27 02:31:12;;;;;;;4.25;3.70;;;9.90;99.90;;;;;;5040938;28;20385;-82
2023/04/27 02:33:38;;;;;;;4.68;3.40;;;9.80;99.90;;;;;;5059264;28;20381;-82
2023/04/27 02:36:04;;;;;;;4.13;3.65;;;9.90;99.90;;;;;;5039755;28;20404;-82
2023/04/27 02:38:29;;;;;;;4.07;3.67;;;9.90;99.90;;;;;;5058473;28;20389;-82
2023/04/27 02:40:55;;;;;;;3.92;3.50;;;9.80;99.90;;;;;;5058575;28;20453;-82
2023/04/27 02:43:21;;;;;;;4.73;3.80;;;9.80;99.90;;;;;;5040213;28;20386;-82
2023/04/27 02:45:47;;;;;;;4.10;3.40;;;9.70;99.90;;;;;;5045708;28;20603;-82
2023/04/27 02:48:12;;;;;;;4.30;3.60;;;9.70;99.90;;;;;;5054433;28;20394;-82
2023/04/27 02:50:42;;;;;;;3.47;3.05;;;9.60;99.90;;;;;;5043375;28;20386;-83
2023/04/27 02:53:08;;;;;;;5.32;3.90;;;9.60;99.90;;;;;;5060808;28;20401;-82
2023/04/27 02:55:34;;;;;;;3.90;3.55;;;9.70;99.90;;;;;;5041607;28;20378;-82
2023/04/27 02:57:59;;;;;;;4.05;3.75;;;9.70;99.90;;;;;;5064680;28;20388;-82
2023/04/27 03:00:25;;;;;;;4.45;4.00;;;9.70;99.90;;;;;;5060240;28;20445;-82
2023/04/27 03:02:51;;;;;;;6.40;3.67;;;9.70;99.90;;;;;;5059215;28;20899;-82
2023/04/27 03:05:16;;;;;;;4.63;3.70;;;9.80;99.90;;;;;;5059003;28;20423;-82
2023/04/27 03:07:42;;;;;;;5.13;4.20;;;9.70;99.90;;;;;;5058691;28;20443;-82
2023/04/27 03:10:08;;;;;;;5.27;4.10;;;9.70;99.90;;;;;;5077036;28;20861;-82
2023/04/27 03:12:33;;;;;;;4.90;3.80;;;9.80;99.90;;;;;;5076119;28;20888;-82
2023/04/27 03:14:59;;;;;;;4.30;3.90;;;9.80;99.90;;;;;;5057855;28;20380;-82
2023/04/27 03:17:25;;;;;;;4.30;3.90;;;9.80;99.90;;;;;;5059070;28;20418;-82
2023/04/27 03:19:51;;;;;;;3.73;3.30;;;9.80;99.90;;;;;;5059199;28;20399;-82
2023/04/27 03:22:17;;;;;;;3.80;3.50;;;9.90;99.90;;;;;;5077600;28;20379;-83
2023/04/27 03:24:42;;;;;;;4.90;3.77;;;9.90;99.90;;;;;;5075291;28;20375;-83
2023/04/27 03:27:08;;;;;;;4.00;3.60;;;9.90;99.90;;;;;;5074297;28;20762;-83
2023/04/27 03:29:33;;;;;;;3.80;3.40;;;9.90;99.90;;;;;;5074451;28;20387;-83
2023/04/27 03:31:59;;;;;;;4.80;3.45;;;10.10;99.90;;;;;;5057561;28;20419;-83
2023/04/27 03:34:25;;;;;;;3.67;3.38;;;10.00;99.90;;;;;;5074543;28;20375;-82
2023/04/27 03:36:50;;;;;;;5.90;3.60;;;9.90;99.90;;;;;;5055862;28;20957;-82
2023/04/27 03:39:16;;;;;;;3.73;3.43;;;9.90;99.90;;;;;;5056334;28;20429;-82
2023/04/27 03:41:41;;;;;;;3.55;3.20;;;9.90;99.90;;;;;;5073902;28;20422;-82
2023/04/27 03:44:07;;;;;;;5.22;3.28;;;9.90;99.90;;;;;;5079806;28;20424;-82
2023/04/27 03:46:33;;;;;;;3.70;3.30;;;9.90;99.90;;;;;;5060868;28;20395;-82
2023/04/27 03:48:58;;;;;;;5.53;3.90;;;9.90;99.90;;;;;;5059918;28;20404;-82
2023/04/27 03:51:24;;;;;;;4.03;3.33;;;9.80;99.90;;;;;;5076983;28;20380;-82
2023/04/27 03:53:50;;;;;;;4.17;3.77;;;9.80;99.90;;;;;;5077498;28;20383;-82
2023/04/27 03:56:15;;;;;;;3.67;3.23;;;9.80;99.90;;;;;;5058211;28;20434;-82
2023/04/27 03:58:41;;;;;;;3.78;3.40;;;9.80;99.90;;;;;;5063372;28;20386;-82
2023/04/27 04:01:08;;;;;;;4.15;3.58;;;9.80;99.90;;;;;;5057072;28;20397;-82
2023/04/27 04:03:35;;;;;;;4.13;3.83;;;9.80;99.90;;;;;;5038124;28;20393;-82
2023/04/27 04:06:02;;;;;;;4.20;3.88;;;9.80;99.90;;;;;;5055579;28;20467;-82
2023/04/27 04:08:28;;;;;;;4.32;3.70;;;9.80;99.90;;;;;;5038339;28;20416;-82
2023/04/27 04:10:55;;;;;;;4.80;4.03;;;9.70;99.90;;;;;;5038152;28;20385;-82
2023/04/27 04:13:20;;;;;;;3.83;3.53;;;9.80;99.90;;;;;;5057672;28;20377;-82
2023/04/27 04:15:46;;;;;;;4.00;3.70;;;9.80;99.90;;;;;;5047050;28;20403;-82
2023/04/27 04:18:11;;;;;;;4.93;4.07;;;9.80;99.90;;;;;;5076111;28;20392;-83
2023/04/27 04:20:37;;;;;;;3.80;3.40;;;9.80;99.90;;;;;;5072943;28;20798;-82
2023/04/27 04:23:02;;;;;;;3.60;3.30;;;9.80;99.90;;;;;;5049200;28;20895;-82
2023/04/27 04:25:28;;;;;;;5.70;3.57;;;9.80;99.90;;;;;;5048971;28;20915;-82
2023/04/27 04:27:53;;;;;;;3.80;3.00;;;9.70;99.90;;;;;;5046534;28;20409;-82
2023/04/27 04:30:19;;;;;;;5.80;3.30;;;9.80;99.90;;;;;;5045653;28;20444;-83
2023/04/27 04:32:44;;;;;;;3.80;3.50;;;9.80;99.90;;;;;;5063455;28;20400;-82
2023/04/27 04:35:10;;;;;;;3.70;3.37;;;9.70;99.90;;;;;;5044872;28;20382;-82
2023/04/27 04:37:36;;;;;;;3.50;3.20;;;9.70;99.90;;;;;;5044801;28;20906;-82
2023/04/27 04:40:09;;;;;;;3.60;2.95;;;9.80;99.90;;;;;;5062959;28;20490;-82
2023/04/27 04:42:38;;;;;;;4.60;3.38;;;9.70;99.90;;;;;;5062560;28;20445;-82
2023/04/27 04:45:04;;;;;;;4.20;3.80;;;9.80;99.90;;;;;;5044863;28;20478;-82
2023/04/27 04:47:33;;;;;;;5.85;3.85;;;9.90;99.90;;;;;;5070154;28;20396;-82
2023/04/27 04:49:59;;;;;;;3.95;3.55;;;9.80;99.90;;;;;;5071586;28;20396;-82
2023/04/27 04:52:24;;;;;;;5.87;3.80;;;9.90;99.90;;;;;;5072890;28;20385;-82
2023/04/27 04:54:53;;;;;;;4.20;3.60;;;9.90;99.90;;;;;;5064150;28;20378;-82
2023/04/27 04:57:18;;;;;;;5.20;3.70;;;9.90;99.90;;;;;;5062500;28;20389;-83
2023/04/27 04:59:44;;;;;;;6.43;4.35;;;9.80;99.90;;;;;;5063249;28;20380;-82
2023/04/27 05:02:09;;;;;;;4.90;3.60;;;9.90;99.90;;;;;;5081587;28;20376;-83
2023/04/27 05:04:35;;;;;;;5.07;3.30;;;9.90;99.90;;;;;;5062387;28;20387;-82
2023/04/27 05:07:00;;;;;;;4.77;4.00;;;10.00;99.90;;;;;;5061841;28;20571;-82
2023/04/27 05:09:26;;;;;;;5.10;3.88;;;10.00;99.90;;;;;;5073188;28;20447;-82
2023/04/27 05:11:51;;;;;;;4.17;3.70;;;9.90;99.90;;;;;;5083247;28;20776;-82
2023/04/27 05:14:17;;;;;;;4.30;3.90;;;9.90;99.90;;;;;;5049745;28;20389;-83
2023/04/27 05:16:43;;;;;;;4.00;3.60;;;10.10;99.90;;;;;;5060617;28;20402;-83
2023/04/27 05:19:08;;;;;;;4.00;3.60;;;10.00;99.90;;;;;;5045653;28;20394;-83
2023/04/27 05:21:34;;;;;;;5.00;4.30;;;10.10;99.90;;;;;;5074875;28;20414;-83
2023/04/27 05:23:59;;;;;;;4.27;3.80;;;10.10;99.90;;;;;;5042401;28;20398;-84
2023/04/27 05:26:25;;;;;;;4.40;3.73;;;10.10;99.90;;;;;;5066420;28;20399;-83
2023/04/27 05:28:50;;;;;;;4.40;3.60;;;10.10;99.90;;;;;;5088142;28;20415;-84
2023/04/27 05:31:16;;;;;;;3.63;3.33;;;10.00;99.90;;;;;;5060191;28;20389;-82
2023/04/27 05:33:41;;;;;;;4.93;3.60;;;9.90;99.90;;;;;;5083738;28;20759;-83
2023/04/27 05:36:08;;;;;;;6.40;3.60;;;10.00;99.90;;;;;;5066449;28;20384;-82
2023/04/27 05:38:34;;;;;;;3.80;3.50;;;10.00;99.90;;;;;;5053633;28;20478;-83
2023/04/27 05:41:00;;;;;;;4.72;3.70;;;10.00;99.90;;;;;;5063660;28;20422;-83
2023/04/27 05:43:26;;;;;;;4.40;3.93;;;10.10;99.90;;;;;;5081558;28;20399;-83
2023/04/27 05:45:52;;;;;;;3.73;3.40;;;10.20;99.90;;;;;;5083341;28;20388;-83
2023/04/27 05:48:19;;;;;;;4.80;3.50;;;10.10;99.90;;;;;;5061857;28;20487;-83
2023/04/27 05:50:44;;;;;;;5.10;3.80;;;10.20;99.90;;;;;;5062646;28;20380;-83
2023/04/27 05:53:10;;;;;;;4.37;3.97;;;10.20;99.90;;;;;;5063038;28;20384;-84
2023/04/27 05:55:36;;;;;;;4.90;4.00;;;10.20;99.90;;;;;;5063617;28;20396;-82
2023/04/27 05:58:02;;;;;;;4.40;3.88;;;10.30;99.90;;;;;;5055130;28;20401;-83
2023/04/27 06:00:28;;;;;;;4.47;4.07;;;10.50;99.90;;;;;;5060145;28;20456;-83
2023/04/27 06:02:53;;;;;;;4.68;3.90;;;10.50;99.90;;;;;;5060331;28;20392;-83
2023/04/27 06:05:20;;;;;;;5.80;4.10;;;10.60;99.90;;;;;;5043319;28;20390;-83
2023/04/27 06:07:46;;;;;;;3.88;3.58;;;10.60;99.90;;;;;;5059378;28;20484;-83
2023/04/27 06:10:12;;;;;;;4.82;3.80;;;10.80;99.90;;;;;;5041415;28;20942;-83
2023/04/27 06:12:37;;;;;;;3.80;3.50;;;10.90;99.90;;;;;;5041138;28;20390;-82
2023/04/27 06:15:07;;;;;;;4.07;3.60;;;11.20;99.90;;;;;;5040448;28;20392;-82
2023/04/27 06:17:34;;;;;;;4.70;3.63;;;11.30;99.90;;;;;;5039668;28;20381;-83
2023/04/27 06:20:00;;;;;;;5.30;3.20;;;11.40;99.90;;;;;;5040049;28;20431;-83
2023/04/27 06:22:26;;;;;;;4.53;3.70;;;11.30;99.90;;;;;;5057620;28;20385;-82
2023/04/27 06:24:51;;;;;;;4.20;3.90;;;11.20;99.90;;;;;;5058834;28;20401;-83
2023/04/27 06:27:17;;;;;;;3.60;3.30;;;11.40;99.90;;;;;;5059616;28;20389;-83
2023/04/27 06:29:42;;;;;;;4.28;3.88;;;11.60;99.90;;;;;;5062226;28;20431;-83
2023/04/27 06:32:08;;;;;;;4.38;3.90;;;11.70;99.90;;;;;;5039944;28;20456;-84
2023/04/27 06:34:34;;;;;;;3.97;3.50;;;11.70;99.90;;;;;;5040822;28;20790;-83
2023/04/27 06:36:59;;;;;;;5.00;4.00;;;11.70;99.90;;;;;;5058245;28;20480;-83
2023/04/27 06:39:25;;;;;;;4.80;3.90;;;11.70;99.90;;;;;;5057102;28;20389;-83
2023/04/27 06:41:50;;;;;;;4.95;3.80;;;11.80;99.90;;;;;;5040466;28;20393;-83
2023/04/27 06:44:16;;;;;;;4.20;3.80;;;11.80;99.90;;;;;;5057981;28;20802;-83
2023/04/27 06:46:41;;;;;;;3.60;3.30;;;11.90;99.90;;;;;;5039787;28;20427;-83
2023/04/27 06:49:07;;;;;;;4.10;3.53;;;11.90;99.90;;;;;;5057903;28;20436;-83
2023/04/27 06:51:32;;;;;;;3.97;3.57;;;12.00;99.90;;;;;;5044838;28;20872;-83
2023/04/27 06:53:58;;;;;;;3.33;2.90;;;11.90;99.90;;;;;;5061900;28;20392;-84
2023/04/27 06:56:24;;;;;;;4.00;3.50;;;11.90;99.90;;;;;;5058974;28;20394;-85
2023/04/27 06:58:49;;;;;;;4.75;3.80;;;12.10;99.90;;;;;;5074027;28;20388;-83
2023/04/27 07:01:15;;;;;;;5.20;3.70;;;12.20;90.60;;;;;;5087717;28;20387;-83
2023/04/27 07:03:41;;;;;;;7.00;4.07;;;12.20;95.80;;;;;;5064853;28;20402;-84
2023/04/27 07:06:06;;;;;;;4.33;3.93;;;12.30;88.90;;;;;;5082222;28;20383;-85
2023/04/27 07:08:32;;;;;;;4.47;4.00;;;12.30;74.90;;;;;;5063248;28;20408;-82
2023/04/27 07:10:57;;;;;;;5.80;4.00;;;12.30;82.90;;;;;;5080675;28;20395;-82
2023/04/27 07:13:23;;;;;;;5.50;3.97;;;12.50;59.80;;;;;;5081176;28;20383;-82
2023/04/27 07:15:56;;;;;;;6.47;4.15;;;12.70;57.80;;;;;;5080469;28;20383;-85
2023/04/27 07:18:21;;;;;;;4.88;4.20;;;12.60;77.10;;;;;;5080107;28;20388;-85
2023/04/27 07:20:47;;;;;;;4.88;3.97;;;12.60;66.00;;;;;;5061983;28;20395;-81
2023/04/27 07:23:12;;;;;;;4.93;4.10;;;12.80;61.80;;;;;;5061070;28;20426;-83
2023/04/27 07:25:39;;;;;;;4.07;3.67;;;12.80;58.70;;;;;;5060847;28;20375;-83
2023/04/27 07:28:04;;;;;;;5.97;3.90;;;12.90;57.70;;;;;;5079528;28;20411;-83
2023/04/27 07:30:30;;;;;;;4.05;3.65;;;13.10;82.40;;;;;;5080229;28;20380;-84
2023/04/27 07:32:56;;;;;;;6.00;4.00;;;13.20;54.50;;;;;;5063048;28;20443;-85
2023/04/27 07:35:21;;;;;;;4.07;3.55;;;13.40;46.20;;;;;;5086076;28;20437;-85
2023/04/27 07:37:47;;;;;;;5.77;4.00;;;13.60;31.40;;;;;;5082487;28;20375;-85
2023/04/27 07:40:15;;;;;;;6.03;4.00;;;13.80;22.80;;;;;;5079925;28;20419;-82
2023/04/27 07:42:41;;;;;;;3.85;3.45;;;13.40;23.70;;;;;;5063105;28;20467;-82
2023/04/27 07:45:08;;;;;;;4.30;3.67;;;13.70;22.40;;;;;;5062592;28;20399;-82
2023/04/27 07:47:34;;;;;;;4.30;3.90;;;13.70;20.60;;;;;;5061690;28;20423;-83
2023/04/27 07:49:59;;;;;;;4.10;3.70;;;13.50;20.40;;;;;;5061960;28;20429;-83
2023/04/27 07:52:25;;;;;;;4.43;4.03;;;13.60;21.10;;;;;;5082978;28;20398;-83
2023/04/27 07:54:51;;;;;;;4.97;4.20;;;13.60;24.30;;;;;;5066934;28;20750;-83
2023/04/27 07:57:16;;;;;;;4.40;4.00;;;13.60;22.90;;;;;;5065363;28;20383;-83
2023/04/27 07:59:42;;;;;;;4.30;3.90;;;13.70;25.40;;;;;;5064840;28;20380;-82
2023/04/27 08:02:07;;;;;;;5.47;3.73;;;13.80;23.50;;;;;;5065723;28;20754;-82
2023/04/27 08:04:33;;;;;;;4.20;3.53;;;13.90;26.10;;;;;;5083435;28;20402;-83
2023/04/27 08:06:59;;;;;;;4.90;4.50;;;14.20;23.10;;;;;;5062357;28;20403;-83
2023/04/27 08:09:25;;;;;;;4.85;4.35;;;14.40;18.40;;;;;;5087844;28;20725;-82
2023/04/27 08:11:51;;;;;;;5.47;4.97;;;14.20;19.10;;;;;;5094212;28;20380;-83
2023/04/27 08:14:16;;;;;;;5.77;4.67;;;14.20;22.90;;;;;;5080338;28;20384;-83
2023/04/27 08:16:43;;;;;;;5.37;4.30;;;14.20;19.90;;;;;;5068534;28;20405;-83
2023/04/27 08:19:09;;;;;;;5.20;4.70;;;14.60;17.00;;;;;;5083626;28;20852;-83
2023/04/27 08:21:36;;;;;;;5.55;4.65;;;14.50;16.10;;;;;;5083303;28;20399;-83
2023/04/27 08:24:02;;;;;;;5.13;4.57;;;14.60;18.60;;;;;;5083012;28;20391;-83
2023/04/27 08:26:27;;;;;;;5.47;4.28;;;14.70;19.00;;;;;;5065367;28;20411;-83
2023/04/27 08:28:55;;;;;;;5.07;4.22;;;14.60;16.80;;;;;;5064479;28;20407;-82
2023/04/27 08:31:21;;;;;;;6.40;4.60;;;14.70;17.00;;;;;;5065780;28;20380;-83
2023/04/27 08:33:47;;;;;;;6.27;4.70;;;14.70;17.20;;;;;;5082274;28;20840;-83
2023/04/27 08:36:12;;;;;;;5.30;4.30;;;14.30;16.50;;;;;;5063579;28;20379;-82
2023/04/27 08:38:37;;;;;;;6.00;5.30;;;14.50;17.80;;;;;;5080706;28;20383;-83
2023/04/27 08:41:03;;;;;;;6.27;4.47;;;14.70;18.30;;;;;;5063385;28;20900;-83
2023/04/27 08:43:35;;;;;;;5.43;4.93;;;14.60;17.40;;;;;;5062336;28;20383;-83
2023/04/27 08:46:01;;;;;;;5.55;4.60;;;14.70;18.40;;;;;;5080844;28;20394;-83
2023/04/27 08:48:27;;;;;;;7.25;4.43;;;14.60;16.00;;;;;;5062353;28;20769;-82
2023/04/27 08:50:55;;;;;;;5.23;4.73;;;14.50;17.40;;;;;;5083300;28;20745;-83
2023/04/27 08:53:22;;;;;;;6.70;4.93;;;14.50;16.60;;;;;;5068622;28;20384;-84
2023/04/27 08:55:51;;;;;;;4.72;4.25;;;14.40;15.20;;;;;;5080285;28;20721;-82
2023/04/27 08:58:16;;;;;;;4.95;4.45;;;14.40;17.50;;;;;;5085292;28;20397;-83
2023/04/27 09:00:44;;;;;;;6.50;4.93;;;14.40;15.30;;;;;;5052776;28;20381;-83
2023/04/27 09:03:22;;;;;;;4.60;4.20;;;14.40;15.10;;;;;;5063822;28;20390;-83
2023/04/27 09:05:48;;;;;;;4.95;4.45;;;14.50;15.00;;;;;;5045276;28;20389;-83
2023/04/27 09:08:14;;;;;;;5.65;5.15;;;14.60;15.30;;;;;;5094445;22;21157;-86
2023/04/27 09:10:57;;;;;;;6.72;4.85;;;14.60;16.70;;;;;;5083586;28;20936;-85
2023/04/27 09:13:34;;;;;;;5.40;4.27;;;14.70;16.20;;;;;;5100201;28;20457;-86
2023/04/27 09:15:59;;;;;;;6.43;4.50;;;14.80;15.80;;;;;;5101192;28;20381;-86
2023/04/27 09:18:25;;;;;;;4.87;4.20;;;14.90;15.40;;;;;;5083754;28;20372;-86
2023/04/27 09:20:52;;;;;;;4.40;4.00;;;15.00;17.00;;;;;;5079892;28;20858;-85
2023/04/27 09:23:28;;;;;;;4.63;4.10;;;15.10;15.20;;;;;;5081005;28;20380;-85
2023/04/27 09:25:59;;;;;;;4.35;3.70;;;15.10;12.60;;;;;;5062574;28;20384;-85
2023/04/27 09:28:26;;;;;;;5.95;3.50;;;15.20;12.50;;;;;;5081002;28;20453;-85
2023/04/27 09:30:54;;;;;;;3.40;3.10;;;15.20;10.30;;;;;;5063240;28;20384;-85
2023/04/27 09:33:53;;;;;;;3.72;3.30;;;15.20;9.80;;;;;;5081207;28;20896;-85
2023/04/27 09:36:20;;;;;;;5.43;4.00;;;15.40;9.60;;;;;;5062044;28;20483;-86
2023/04/27 09:38:46;;;;;;;3.50;3.20;;;15.40;10.10;;;;;;5080225;28;20399;-85
2023/04/27 09:41:12;;;;;;;5.03;3.35;;;15.20;10.60;;;;;;5061092;28;20399;-85
2023/04/27 09:43:38;;;;;;;3.50;3.13;;;15.70;10.10;;;;;;5091458;28;20407;-85
2023/04/27 09:46:04;;;;;;;4.47;3.70;;;15.70;8.50;;;;;;5063233;28;20443;-86
2023/04/27 09:48:30;;;;;;;3.83;3.50;;;15.60;10.30;;;;;;5062017;28;20445;-86
2023/04/27 09:50:55;;;;;;;4.30;3.28;;;15.80;12.90;;;;;;5061486;28;20388;-85
2023/04/27 09:53:54;;;;;;;5.50;3.70;;;16.00;12.60;;;;;;5078928;28;20401;-86
2023/04/27 09:56:41;;;;;;;5.78;3.38;;;16.20;9.90;;;;;;5065222;28;20407;-86
2023/04/27 09:59:36;;;;;;;4.60;3.30;;;16.30;8.70;;;;;;5061977;28;20380;-84
2023/04/27 10:02:03;;;;;;;3.40;2.80;;;16.20;7.70;;;;;;5081696;28;20912;-85
2023/04/27 10:04:53;;;;;;;3.88;2.70;;;16.50;5.30;;;;;;5063441;28;20379;-85
2023/04/27 10:07:19;;;;;;;5.15;2.83;;;16.30;6.90;;;;;;5079874;28;20380;-86
2023/04/27 10:09:46;;;;;;;3.72;2.85;;;16.70;5.90;;;;;;5061413;28;20423;-86
2023/04/27 10:12:25;;;;;;;3.40;2.50;;;16.80;5.80;;;;;;5061026;28;20388;-87
2023/04/27 10:14:56;;;;;;;3.50;2.30;;;16.70;2.70;;;;;;5078970;28;20394;-85
2023/04/27 10:17:29;;;;;;;2.70;2.23;;;16.90;5.40;;;;;;5060561;28;20383;-86
2023/04/27 10:19:57;;;;;;;2.90;2.60;;;16.90;2.60;;;;;;5060461;28;20411;-86
2023/04/27 10:22:23;;;;;;;2.17;1.98;;;17.10;6.40;;;;;;5059579;28;20384;-85
2023/04/27 10:24:50;;;;;;;3.20;2.50;;;19.30;3.70;;;;;;5060716;28;20424;-86
2023/04/27 10:27:21;;;;;;;3.35;2.30;;;17.40;1.80;;;;;;5060321;28;20441;-85
2023/04/27 10:29:48;;;;;;;4.28;2.70;;;17.20;2.90;;;;;;5059987;28;20909;-85
2023/04/27 10:32:24;;;;;;;4.18;2.67;;;17.00;2.10;;;;;;5056348;28;20392;-85
2023/04/27 10:35:01;;;;;;;4.13;2.67;;;17.10;2.00;;;;;;5071361;28;20400;-84
2023/04/27 10:37:38;;;;;;;3.58;2.20;;;17.30;3.80;;;;;;5035568;28;20435;-85
2023/04/27 10:40:09;;;;;;;2.60;2.40;;;17.10;6.00;;;;;;5037533;28;20751;-86
2023/04/27 10:42:34;;;;;;;2.10;1.90;;;17.00;1.00;;;;;;5055863;28;20480;-85
2023/04/27 10:45:00;;;;;;;2.20;2.00;;;16.90;1.00;;;;;;5054776;28;20463;-86
2023/04/27 10:47:40;;;;;;;2.80;2.10;;;17.00;1.00;;;;;;5058812;28;20503;-86
2023/04/27 10:50:08;;;;;;;2.38;2.10;;;17.20;1.00;;;;;;5056361;28;20407;-85
2023/04/27 10:52:33;;;;;;;3.30;1.77;;;17.40;1.00;;;;;;5068953;28;20393;-86
2023/04/27 10:55:24;;;;;;;2.90;1.60;;;17.40;1.00;;;;;;5059062;28;20480;-85
2023/04/27 10:57:52;;;;;;;2.03;1.60;;;17.40;1.00;;;;;;5081533;28;20394;-84
2023/04/27 11:00:28;;;;;;;1.70;1.60;;;17.20;1.00;;;;;;5095065;28;20384;-85
2023/04/27 11:02:55;;;;;;;2.20;1.70;;;17.20;1.00;;;;;;5070818;28;20473;-85
2023/04/27 11:05:24;;;;;;;2.92;1.90;;;17.80;1.00;;;;;;5087990;28;20474;-89
2023/04/27 11:07:50;;;;;;;2.20;2.00;;;17.90;1.00;;;;;;5076564;28;20478;-86
2023/04/27 11:10:17;;;;;;;2.25;2.05;;;17.80;1.00;;;;;;5085594;28;20405;-86
2023/04/27 11:12:43;;;;;;;2.92;1.92;;;18.10;1.00;;;;;;5075091;28;20472;-87
2023/04/27 11:15:10;;;;;;;2.60;1.98;;;18.40;1.00;;;;;;5063889;28;20388;-89
2023/04/27 11:17:35;;;;;;;2.00;1.80;;;18.40;1.00;;;;;;5089195;28;20426;-86
2023/04/27 11:20:01;;;;;;;2.33;1.92;;;18.80;1.00;;;;;;5065019;28;20389;-85
2023/04/27 11:22:26;;;;;;;3.10;1.93;;;19.40;1.00;;;;;;5084174;28;20391;-83
2023/04/27 11:24:52;;;;;;;2.05;1.85;;;19.30;1.00;;;;;;5063820;28;20387;-83
2023/04/27 11:27:20;;;;;;;2.80;1.90;;;19.60;1.00;;;;;;5077247;28;20417;-83
2023/04/27 11:29:46;;;;;;;2.42;2.10;;;19.50;1.00;;;;;;5060994;28;20476;-84
2023/04/27 11:32:22;;;;;;;2.33;2.00;;;18.70;1.00;;;;;;5056803;28;20393;-84
2023/04/27 11:34:52;;;;;;;2.90;2.00;;;19.10;1.00;;;;;;5089585;28;20379;-83
2023/04/27 11:37:25;;;;;;;1.92;1.60;;;20.50;1.00;;;;;;5073919;28;20396;-84
2023/04/27 11:39:53;;;;;;;2.83;2.10;;;21.10;1.00;;;;;;5070214;28;20379;-84
2023/04/27 11:42:23;;;;;;;2.67;1.70;;;21.30;1.00;;;;;;5077719;28;20753;-85
2023/04/27 11:44:53;;;;;;;1.48;1.20;;;21.80;1.00;;;;;;5085505;28;20894;-84
2023/04/27 11:47:21;;;;;;;1.70;1.40;;;22.30;1.00;;;;;;5069231;28;20377;-84
2023/04/27 11:49:51;;;;;;;2.95;1.80;;;21.10;1.00;;;;;;5075379;28;20434;-83
2023/04/27 11:52:17;;;;;;;1.70;1.60;;;21.30;1.00;;;;;;5057038;28;20404;-84
2023/04/27 11:54:51;;;;;;;1.60;1.50;;;21.00;1.00;;;;;;5083174;28;20443;-83
2023/04/27 11:57:23;;;;;;;1.90;1.70;;;21.40;1.00;;;;;;5052381;28;20389;-83
2023/04/27 11:59:49;;;;;;;1.70;1.60;;;22.30;1.00;;;;;;5057346;28;20387;-84
2023/04/27 12:02:15;;;;;;;1.73;1.63;;;22.00;1.00;;;;;;5052365;28;20427;-84
2023/04/27 12:04:41;;;;;;;1.60;1.50;;;21.70;1.00;;;;;;5072694;28;20884;-84
2023/04/27 12:07:07;;;;;;;2.50;1.60;;;21.40;1.00;;;;;;5060985;28;20373;-84
2023/04/27 12:09:33;;;;;;;2.10;1.45;;;19.60;1.00;;;;;;5053916;28;20406;-84
2023/04/27 12:11:58;;;;;;;1.98;1.77;;;20.50;1.00;;;;;;5071003;28;20384;-84
2023/04/27 12:14:24;;;;;;;2.33;1.60;;;20.60;1.00;;;;;;5053386;28;20404;-82
2023/04/27 12:16:50;;;;;;;2.10;1.60;;;21.10;1.00;;;;;;5060060;28;20380;-84
2023/04/27 12:19:16;;;;;;;1.85;1.52;;;20.30;1.00;;;;;;5047094;28;20395;-84
2023/04/27 12:21:41;;;;;;;1.70;1.47;;;19.90;1.00;;;;;;5049687;28;20961;-83
2023/04/27 12:24:07;;;;;;;1.42;1.30;;;19.40;1.00;;;;;;5064140;28;20398;-83
2023/04/27 12:26:33;;;;;;;2.00;1.60;;;20.30;1.00;;;;;;5062231;28;20884;-83
2023/04/27 12:28:58;;;;;;;2.53;1.50;;;20.40;1.00;;;;;;5066607;28;20423;-83
2023/04/27 12:31:24;;;;;;;2.07;1.20;;;19.90;1.00;;;;;;5077290;28;20392;-84
2023/04/27 12:33:50;;;;;;;1.70;1.60;;;19.70;1.00;;;;;;5077479;28;20443;-84
2023/04/27 12:36:17;;;;;;;1.70;1.50;;;19.80;1.00;;;;;;5058946;28;20416;-84
2023/04/27 12:38:42;;;;;;;3.78;1.55;;;19.40;1.00;;;;;;5052779;28;20410;-84
2023/04/27 12:41:08;;;;;;;1.70;1.60;;;19.80;1.00;;;;;;5058290;28;20384;-84
2023/04/27 12:43:37;;;;;;;1.40;1.30;;;20.40;1.00;;;;;;5047174;28;20412;-84
2023/04/27 12:46:03;;;;;;;1.30;0.98;;;21.30;1.00;;;;;;5054820;28;20412;-84
2023/04/27 12:48:28;;;;;;;1.33;0.90;;;22.60;1.00;;;;;;5073462;28;20849;-85
2023/04/27 12:50:54;;;;;;;0.90;0.60;;;23.00;1.00;;;;;;5062868;28;20409;-85